sensor_id;sensor_type;location;lat;lon;timestamp;temperature;humidity
38568;DHT22;24338;48.280;10.970;2023-02-15T00:02:01;-1.20;99.90
38568;DHT22;24338;48.280;10.970;2023-02-15T00:04:28;-1.30;99.90
38568;DHT22;24338;48.280;10.970;2023-02-15T00:07:17;-1.30;99.90
38568;DHT22;24338;48.280;10.970;2023-02-15T00:09:47;-1.30;99.90
38568;DHT22;24338;48.280;10.970;2023-02-15T00:12:15;-1.40;99.90
38568;DHT22;24338;48.280;10.970;2023-02-15T00:14:42;-1.40;99.90
38568;DHT22;24338;48.280;10.970;2023-02-15T00:17:09;-1.40;99.90
38568;DHT22;24338;48.280;10.970;2023-02-15T00:19:36;-1.40;99.90
38568;DHT22;24338;48.280;10.970;2023-02-15T00:22:03;-1.40;99.90
38568;DHT22;24338;48.280;10.970;2023-02-15T00:24:30;-1.50;99.90
38568;DHT22;24338;48.280;10.970;2023-02-15T00:26:56;-1.40;99.90
38568;DHT22;24338;48.280;10.970;2023-02-15T00:29:23;-1.40;99.90
38568;DHT22;24338;48.280;10.970;2023-02-15T00:31:50;-1.40;99.90
38568;DHT22;24338;48.280;10.970;2023-02-15T00:34:21;-1.30;99.90
38568;DHT22;24338;48.280;10.970;2023-02-15T00:36:48;-1.30;99.90
38568;DHT22;24338;48.280;10.970;2023-02-15T00:39:16;-1.30;99.90
38568;DHT22;24338;48.280;10.970;2023-02-15T00:41:44;-1.30;99.90
38568;DHT22;24338;48.280;10.970;2023-02-15T00:44:12;-1.30;99.90
38568;DHT22;24338;48.280;10.970;2023-02-15T00:46:39;-1.20;99.90
38568;DHT22;24338;48.280;10.970;2023-02-15T00:49:06;-1.20;99.90
38568;DHT22;24338;48.280;10.970;2023-02-15T00:51:32;-1.30;99.90
38568;DHT22;24338;48.280;10.970;2023-02-15T00:53:59;-1.30;99.90
38568;DHT22;24338;48.280;10.970;2023-02-15T00:56:26;-1.30;99.90
38568;DHT22;24338;48.280;10.970;2023-02-15T00:58:57;-1.30;99.90
38568;DHT22;24338;48.280;10.970;2023-02-15T01:01:24;-1.30;99.90
38568;DHT22;24338;48.280;10.970;2023-02-15T01:03:52;-1.30;99.90
38568;DHT22;24338;48.280;10.970;2023-02-15T01:06:19;-1.40;99.90
38568;DHT22;24338;48.280;10.970;2023-02-15T01:08:46;-1.40;99.90
38568;DHT22;24338;48.280;10.970;2023-02-15T01:11:18;-1.40;99.90
38568;DHT22;24338;48.280;10.970;2023-02-15T01:13:56;-1.40;99.90
38568;DHT22;24338;48.280;10.970;2023-02-15T01:16:25;-1.40;99.90
38568;DHT22;24338;48.280;10.970;2023-02-15T01:18:53;-1.40;99.90
38568;DHT22;24338;48.280;10.970;2023-02-15T01:21:22;-1.40;99.90
38568;DHT22;24338;48.280;10.970;2023-02-15T01:23:50;-1.40;99.90
38568;DHT22;24338;48.280;10.970;2023-02-15T01:26:17;-1.40;99.90
38568;DHT22;24338;48.280;10.970;2023-02-15T01:28:44;-1.40;99.90
38568;DHT22;24338;48.280;10.970;2023-02-15T01:31:14;-1.40;99.90
38568;DHT22;24338;48.280;10.970;2023-02-15T01:33:42;-1.40;99.90
38568;DHT22;24338;48.280;10.970;2023-02-15T01:36:10;-1.50;99.90
38568;DHT22;24338;48.280;10.970;2023-02-15T01:38:37;-1.40;99.90
38568;DHT22;24338;48.280;10.970;2023-02-15T01:41:03;-1.50;99.90
38568;DHT22;24338;48.280;10.970;2023-02-15T01:43:55;-1.50;99.90
38568;DHT22;24338;48.280;10.970;2023-02-15T01:46:50;-1.40;99.90
38568;DHT22;24338;48.280;10.970;2023-02-15T01:49:20;-1.40;99.90
38568;DHT22;24338;48.280;10.970;2023-02-15T01:51:50;-1.40;99.90
38568;DHT22;24338;48.280;10.970;2023-02-15T01:54:23;-1.40;99.90
38568;DHT22;24338;48.280;10.970;2023-02-15T01:56:52;-1.40;99.90
38568;DHT22;24338;48.280;10.970;2023-02-15T01:59:22;-1.40;99.90
38568;DHT22;24338;48.280;10.970;2023-02-15T02:01:52;-1.40;99.90
38568;DHT22;24338;48.280;10.970;2023-02-15T02:04:42;-1.40;99.90
38568;DHT22;24338;48.280;10.970;2023-02-15T02:07:12;-1.40;99.90
38568;DHT22;24338;48.280;10.970;2023-02-15T02:09:41;-1.40;99.90
38568;DHT22;24338;48.280;10.970;2023-02-15T02:12:08;-1.50;99.90
38568;DHT22;24338;48.280;10.970;2023-02-15T02:14:36;-1.50;99.90
38568;DHT22;24338;48.280;10.970;2023-02-15T02:17:09;-1.50;99.90
38568;DHT22;24338;48.280;10.970;2023-02-15T02:25:51;-1.60;99.90
38568;DHT22;24338;48.280;10.970;2023-02-15T02:31:43;-1.50;99.90
38568;DHT22;24338;48.280;10.970;2023-02-15T02:34:29;-1.50;99.90
38568;DHT22;24338;48.280;10.970;2023-02-15T02:39:42;-1.40;99.90
38568;DHT22;24338;48.280;10.970;2023-02-15T02:44:51;-1.40;99.90
38568;DHT22;24338;48.280;10.970;2023-02-15T02:47:26;-1.40;99.90
38568;DHT22;24338;48.280;10.970;2023-02-15T02:50:02;-1.40;99.90
38568;DHT22;24338;48.280;10.970;2023-02-15T02:55:00;-1.40;99.90
38568;DHT22;24338;48.280;10.970;2023-02-15T02:57:29;-1.40;99.90
38568;DHT22;24338;48.280;10.970;2023-02-15T02:59:59;-1.40;99.90
38568;DHT22;24338;48.280;10.970;2023-02-15T03:02:30;-1.50;99.90
38568;DHT22;24338;48.280;10.970;2023-02-15T03:05:03;-1.50;99.90
38568;DHT22;24338;48.280;10.970;2023-02-15T03:07:34;-1.50;99.90
38568;DHT22;24338;48.280;10.970;2023-02-15T03:10:04;-1.50;99.90
38568;DHT22;24338;48.280;10.970;2023-02-15T03:12:34;-1.60;99.90
38568;DHT22;24338;48.280;10.970;2023-02-15T03:15:15;-1.50;99.90
38568;DHT22;24338;48.280;10.970;2023-02-15T03:17:48;-1.50;99.90
38568;DHT22;24338;48.280;10.970;2023-02-15T03:20:28;-1.50;99.90
38568;DHT22;24338;48.280;10.970;2023-02-15T03:23:09;-1.60;99.90
38568;DHT22;24338;48.280;10.970;2023-02-15T03:25:40;-1.60;99.90
38568;DHT22;24338;48.280;10.970;2023-02-15T03:28:15;-1.60;99.90
38568;DHT22;24338;48.280;10.970;2023-02-15T03:30:44;-1.60;99.90
38568;DHT22;24338;48.280;10.970;2023-02-15T03:33:13;-1.60;99.90
38568;DHT22;24338;48.280;10.970;2023-02-15T03:36:02;-1.60;99.90
38568;DHT22;24338;48.280;10.970;2023-02-15T03:38:43;-1.70;99.90
38568;DHT22;24338;48.280;10.970;2023-02-15T03:41:13;-1.70;99.90
38568;DHT22;24338;48.280;10.970;2023-02-15T03:43:55;-1.70;99.90
38568;DHT22;24338;48.280;10.970;2023-02-15T03:46:45;-1.60;99.90
38568;DHT22;24338;48.280;10.970;2023-02-15T03:52:11;-1.60;99.90
38568;DHT22;24338;48.280;10.970;2023-02-15T03:54:39;-1.60;99.90
38568;DHT22;24338;48.280;10.970;2023-02-15T03:57:20;-1.50;99.90
38568;DHT22;24338;48.280;10.970;2023-02-15T04:00:17;-1.60;99.90
38568;DHT22;24338;48.280;10.970;2023-02-15T04:03:26;-1.60;99.90
38568;DHT22;24338;48.280;10.970;2023-02-15T04:05:57;-1.60;99.90
38568;DHT22;24338;48.280;10.970;2023-02-15T04:08:24;-1.60;99.90
38568;DHT22;24338;48.280;10.970;2023-02-15T04:11:11;-1.60;99.90
38568;DHT22;24338;48.280;10.970;2023-02-15T04:13:38;-1.50;99.90
38568;DHT22;24338;48.280;10.970;2023-02-15T04:16:05;-1.50;99.90
38568;DHT22;24338;48.280;10.970;2023-02-15T04:18:37;-1.50;99.90
38568;DHT22;24338;48.280;10.970;2023-02-15T04:21:24;-1.50;99.90
38568;DHT22;24338;48.280;10.970;2023-02-15T04:24:10;-1.60;99.90
38568;DHT22;24338;48.280;10.970;2023-02-15T04:26:56;-1.50;99.90
38568;DHT22;24338;48.280;10.970;2023-02-15T04:29:24;-1.50;99.90
38568;DHT22;24338;48.280;10.970;2023-02-15T04:31:52;-1.60;99.90
38568;DHT22;24338;48.280;10.970;2023-02-15T04:34:20;-1.60;99.90
38568;DHT22;24338;48.280;10.970;2023-02-15T04:36:47;-1.60;99.90
38568;DHT22;24338;48.280;10.970;2023-02-15T04:39:15;-1.60;99.90
38568;DHT22;24338;48.280;10.970;2023-02-15T04:41:42;-1.70;99.90
38568;DHT22;24338;48.280;10.970;2023-02-15T04:44:09;-1.70;99.90
38568;DHT22;24338;48.280;10.970;2023-02-15T04:46:36;-1.70;99.90
38568;DHT22;24338;48.280;10.970;2023-02-15T04:49:03;-1.60;99.90
38568;DHT22;24338;48.280;10.970;2023-02-15T04:51:30;-1.60;99.90
38568;DHT22;24338;48.280;10.970;2023-02-15T04:53:57;-1.60;99.90
38568;DHT22;24338;48.280;10.970;2023-02-15T04:56:24;-1.60;99.90
38568;DHT22;24338;48.280;10.970;2023-02-15T04:58:50;-1.60;99.90
38568;DHT22;24338;48.280;10.970;2023-02-15T05:01:18;-1.70;99.90
38568;DHT22;24338;48.280;10.970;2023-02-15T05:03:44;-1.70;99.90
38568;DHT22;24338;48.280;10.970;2023-02-15T05:06:11;-1.70;99.90
38568;DHT22;24338;48.280;10.970;2023-02-15T05:08:38;-1.70;99.90
38568;DHT22;24338;48.280;10.970;2023-02-15T05:11:05;-1.70;99.90
38568;DHT22;24338;48.280;10.970;2023-02-15T05:13:31;-1.70;99.90
38568;DHT22;24338;48.280;10.970;2023-02-15T05:15:58;-1.70;99.90
38568;DHT22;24338;48.280;10.970;2023-02-15T05:18:26;-1.70;99.90
38568;DHT22;24338;48.280;10.970;2023-02-15T05:20:52;-1.70;99.90
38568;DHT22;24338;48.280;10.970;2023-02-15T05:23:19;-1.70;99.90
38568;DHT22;24338;48.280;10.970;2023-02-15T05:25:48;-1.70;99.90
38568;DHT22;24338;48.280;10.970;2023-02-15T05:28:34;-1.70;99.90
38568;DHT22;24338;48.280;10.970;2023-02-15T05:31:12;-1.70;99.90
38568;DHT22;24338;48.280;10.970;2023-02-15T05:33:40;-1.70;99.90
38568;DHT22;24338;48.280;10.970;2023-02-15T05:36:07;-1.70;99.90
38568;DHT22;24338;48.280;10.970;2023-02-15T05:38:34;-1.70;99.90
38568;DHT22;24338;48.280;10.970;2023-02-15T05:41:13;-1.80;99.90
38568;DHT22;24338;48.280;10.970;2023-02-15T05:43:40;-1.80;99.90
38568;DHT22;24338;48.280;10.970;2023-02-15T05:46:07;-1.70;99.90
38568;DHT22;24338;48.280;10.970;2023-02-15T05:48:34;-1.70;99.90
38568;DHT22;24338;48.280;10.970;2023-02-15T05:53:32;-1.70;99.90
38568;DHT22;24338;48.280;10.970;2023-02-15T05:56:00;-1.70;99.90
38568;DHT22;24338;48.280;10.970;2023-02-15T05:58:37;-1.70;99.90
38568;DHT22;24338;48.280;10.970;2023-02-15T06:01:12;-1.70;99.90
38568;DHT22;24338;48.280;10.970;2023-02-15T06:03:39;-1.70;99.90
38568;DHT22;24338;48.280;10.970;2023-02-15T06:06:07;-1.70;99.90
38568;DHT22;24338;48.280;10.970;2023-02-15T06:08:35;-1.70;99.90
38568;DHT22;24338;48.280;10.970;2023-02-15T06:11:02;-1.80;99.90
38568;DHT22;24338;48.280;10.970;2023-02-15T06:13:29;-1.80;99.90
38568;DHT22;24338;48.280;10.970;2023-02-15T06:15:56;-1.90;99.90
38568;DHT22;24338;48.280;10.970;2023-02-15T06:18:23;-1.90;99.90
38568;DHT22;24338;48.280;10.970;2023-02-15T06:20:50;-1.90;99.90
38568;DHT22;24338;48.280;10.970;2023-02-15T06:23:17;-1.90;99.90
38568;DHT22;24338;48.280;10.970;2023-02-15T06:25:45;-1.90;99.90
38568;DHT22;24338;48.280;10.970;2023-02-15T06:28:12;-1.90;99.90
38568;DHT22;24338;48.280;10.970;2023-02-15T06:30:39;-1.80;99.90
38568;DHT22;24338;48.280;10.970;2023-02-15T06:33:06;-1.80;99.90
38568;DHT22;24338;48.280;10.970;2023-02-15T06:35:33;-2.00;99.90
38568;DHT22;24338;48.280;10.970;2023-02-15T06:38:00;-1.90;99.90
38568;DHT22;24338;48.280;10.970;2023-02-15T06:40:26;-1.90;99.90
38568;DHT22;24338;48.280;10.970;2023-02-15T06:42:53;-1.90;99.90
38568;DHT22;24338;48.280;10.970;2023-02-15T06:45:20;-1.90;99.90
38568;DHT22;24338;48.280;10.970;2023-02-15T06:47:47;-2.00;99.90
38568;DHT22;24338;48.280;10.970;2023-02-15T06:50:14;-2.00;99.90
38568;DHT22;24338;48.280;10.970;2023-02-15T06:52:40;-1.90;99.90
38568;DHT22;24338;48.280;10.970;2023-02-15T06:55:07;-1.90;99.90
38568;DHT22;24338;48.280;10.970;2023-02-15T06:57:34;-2.00;99.90
38568;DHT22;24338;48.280;10.970;2023-02-15T07:00:01;-1.90;99.90
38568;DHT22;24338;48.280;10.970;2023-02-15T07:02:28;-1.90;99.90
38568;DHT22;24338;48.280;10.970;2023-02-15T07:04:55;-1.90;99.90
38568;DHT22;24338;48.280;10.970;2023-02-15T07:07:22;-1.90;99.90
38568;DHT22;24338;48.280;10.970;2023-02-15T07:09:48;-1.90;99.90
38568;DHT22;24338;48.280;10.970;2023-02-15T07:12:15;-1.90;99.90
38568;DHT22;24338;48.280;10.970;2023-02-15T07:15:00;-1.90;99.90
38568;DHT22;24338;48.280;10.970;2023-02-15T07:17:28;-1.90;99.90
38568;DHT22;24338;48.280;10.970;2023-02-15T07:20:10;-1.90;99.90
38568;DHT22;24338;48.280;10.970;2023-02-15T07:22:38;-1.90;99.90
38568;DHT22;24338;48.280;10.970;2023-02-15T07:25:06;-1.90;99.90
38568;DHT22;24338;48.280;10.970;2023-02-15T07:27:34;-1.90;99.90
38568;DHT22;24338;48.280;10.970;2023-02-15T07:30:01;-1.90;99.90
38568;DHT22;24338;48.280;10.970;2023-02-15T07:32:29;-1.90;99.90
38568;DHT22;24338;48.280;10.970;2023-02-15T07:34:57;-1.80;99.90
38568;DHT22;24338;48.280;10.970;2023-02-15T07:37:24;-1.80;99.90
38568;DHT22;24338;48.280;10.970;2023-02-15T07:39:51;-1.80;99.90
38568;DHT22;24338;48.280;10.970;2023-02-15T07:42:17;-1.80;99.90
38568;DHT22;24338;48.280;10.970;2023-02-15T07:44:46;-1.80;99.90
38568;DHT22;24338;48.280;10.970;2023-02-15T07:47:13;-1.80;99.90
38568;DHT22;24338;48.280;10.970;2023-02-15T07:49:40;-1.80;99.90
38568;DHT22;24338;48.280;10.970;2023-02-15T07:52:06;-1.80;99.90
38568;DHT22;24338;48.280;10.970;2023-02-15T07:54:33;-1.80;99.90
38568;DHT22;24338;48.280;10.970;2023-02-15T07:57:00;-1.80;99.90
38568;DHT22;24338;48.280;10.970;2023-02-15T07:59:28;-1.80;99.90
38568;DHT22;24338;48.280;10.970;2023-02-15T08:01:54;-1.80;99.90
38568;DHT22;24338;48.280;10.970;2023-02-15T08:04:23;-1.70;99.90
38568;DHT22;24338;48.280;10.970;2023-02-15T08:06:53;-1.60;99.90
38568;DHT22;24338;48.280;10.970;2023-02-15T08:09:21;-1.60;99.90
38568;DHT22;24338;48.280;10.970;2023-02-15T08:11:48;-1.60;99.90
38568;DHT22;24338;48.280;10.970;2023-02-15T08:14:19;-1.50;99.90
38568;DHT22;24338;48.280;10.970;2023-02-15T08:16:51;-1.30;99.90
38568;DHT22;24338;48.280;10.970;2023-02-15T08:19:24;-1.30;99.90
38568;DHT22;24338;48.280;10.970;2023-02-15T08:21:56;-1.20;99.90
38568;DHT22;24338;48.280;10.970;2023-02-15T08:24:25;-1.30;99.90
38568;DHT22;24338;48.280;10.970;2023-02-15T08:26:53;-1.30;99.90
38568;DHT22;24338;48.280;10.970;2023-02-15T08:29:22;-1.40;99.90
38568;DHT22;24338;48.280;10.970;2023-02-15T08:31:50;-1.40;99.90
38568;DHT22;24338;48.280;10.970;2023-02-15T08:34:19;-1.40;99.90
38568;DHT22;24338;48.280;10.970;2023-02-15T08:36:47;-1.40;99.90
38568;DHT22;24338;48.280;10.970;2023-02-15T08:39:14;-1.30;99.90
38568;DHT22;24338;48.280;10.970;2023-02-15T08:41:43;-1.20;99.90
38568;DHT22;24338;48.280;10.970;2023-02-15T08:44:10;-1.20;99.90
38568;DHT22;24338;48.280;10.970;2023-02-15T08:46:40;-1.20;99.90
38568;DHT22;24338;48.280;10.970;2023-02-15T08:49:09;-1.30;99.90
38568;DHT22;24338;48.280;10.970;2023-02-15T08:51:37;-1.30;99.90
38568;DHT22;24338;48.280;10.970;2023-02-15T08:54:08;-1.20;99.90
38568;DHT22;24338;48.280;10.970;2023-02-15T08:56:37;-1.20;99.90
38568;DHT22;24338;48.280;10.970;2023-02-15T08:59:06;-1.20;99.90
38568;DHT22;24338;48.280;10.970;2023-02-15T09:01:34;-1.10;99.90
38568;DHT22;24338;48.280;10.970;2023-02-15T09:04:04;-1.20;99.90
38568;DHT22;24338;48.280;10.970;2023-02-15T09:06:32;-1.00;99.90
38568;DHT22;24338;48.280;10.970;2023-02-15T09:08:59;-1.00;99.90
38568;DHT22;24338;48.280;10.970;2023-02-15T09:11:32;-1.10;99.90
38568;DHT22;24338;48.280;10.970;2023-02-15T09:14:04;-0.90;99.90
38568;DHT22;24338;48.280;10.970;2023-02-15T09:16:33;-0.80;99.90
38568;DHT22;24338;48.280;10.970;2023-02-15T09:19:00;-0.80;99.90
38568;DHT22;24338;48.280;10.970;2023-02-15T09:21:35;-0.60;99.90
38568;DHT22;24338;48.280;10.970;2023-02-15T09:24:10;-0.60;99.90
38568;DHT22;24338;48.280;10.970;2023-02-15T09:26:40;-0.80;99.90
38568;DHT22;24338;48.280;10.970;2023-02-15T09:29:08;-0.60;99.90
38568;DHT22;24338;48.280;10.970;2023-02-15T09:31:47;-0.50;99.90
38568;DHT22;24338;48.280;10.970;2023-02-15T09:34:18;-0.50;99.90
38568;DHT22;24338;48.280;10.970;2023-02-15T09:36:46;-0.60;99.90
38568;DHT22;24338;48.280;10.970;2023-02-15T09:39:22;-0.60;99.90
38568;DHT22;24338;48.280;10.970;2023-02-15T09:58:51;0.30;99.90
38568;DHT22;24338;48.280;10.970;2023-02-15T10:04:14;0.20;99.90
38568;DHT22;24338;48.280;10.970;2023-02-15T10:07:00;0.40;99.90
38568;DHT22;24338;48.280;10.970;2023-02-15T10:12:57;0.80;99.90
38568;DHT22;24338;48.280;10.970;2023-02-15T10:21:24;0.90;99.90
38568;DHT22;24338;48.280;10.970;2023-02-15T10:24:13;1.10;99.90
38568;DHT22;24338;48.280;10.970;2023-02-15T10:26:44;1.30;99.90
38568;DHT22;24338;48.280;10.970;2023-02-15T10:29:37;1.40;99.90
38568;DHT22;24338;48.280;10.970;2023-02-15T10:32:24;1.50;99.90
38568;DHT22;24338;48.280;10.970;2023-02-15T10:35:01;1.50;99.90
38568;DHT22;24338;48.280;10.970;2023-02-15T10:43:22;1.50;99.90
38568;DHT22;24338;48.280;10.970;2023-02-15T10:46:23;1.70;99.90
38568;DHT22;24338;48.280;10.970;2023-02-15T10:48:56;1.80;99.90
38568;DHT22;24338;48.280;10.970;2023-02-15T10:57:36;1.70;99.90
38568;DHT22;24338;48.280;10.970;2023-02-15T11:00:21;2.10;99.90
38568;DHT22;24338;48.280;10.970;2023-02-15T11:03:17;2.30;99.90
38568;DHT22;24338;48.280;10.970;2023-02-15T11:06:01;2.60;99.90
38568;DHT22;24338;48.280;10.970;2023-02-15T11:08:32;2.60;99.90
38568;DHT22;24338;48.280;10.970;2023-02-15T11:11:07;2.70;99.90
38568;DHT22;24338;48.280;10.970;2023-02-15T11:13:40;2.70;99.90
38568;DHT22;24338;48.280;10.970;2023-02-15T11:16:34;2.80;99.90
38568;DHT22;24338;48.280;10.970;2023-02-15T11:19:12;2.80;99.90
38568;DHT22;24338;48.280;10.970;2023-02-15T11:21:46;2.90;99.90
38568;DHT22;24338;48.280;10.970;2023-02-15T11:24:19;3.00;99.90
38568;DHT22;24338;48.280;10.970;2023-02-15T11:27:05;3.00;99.90
38568;DHT22;24338;48.280;10.970;2023-02-15T11:30:00;3.10;99.90
38568;DHT22;24338;48.280;10.970;2023-02-15T11:32:37;3.20;99.90
38568;DHT22;24338;48.280;10.970;2023-02-15T11:43:11;3.40;99.90
38568;DHT22;24338;48.280;10.970;2023-02-15T11:45:42;3.50;99.90
38568;DHT22;24338;48.280;10.970;2023-02-15T11:48:11;3.70;99.90
38568;DHT22;24338;48.280;10.970;2023-02-15T11:50:39;3.70;99.90
38568;DHT22;24338;48.280;10.970;2023-02-15T11:53:16;3.80;99.90
38568;DHT22;24338;48.280;10.970;2023-02-15T11:55:45;3.80;99.90
38568;DHT22;24338;48.280;10.970;2023-02-15T11:58:52;3.90;99.90
38568;DHT22;24338;48.280;10.970;2023-02-15T12:01:23;4.10;99.90
38568;DHT22;24338;48.280;10.970;2023-02-15T12:06:58;4.30;99.90
38568;DHT22;24338;48.280;10.970;2023-02-15T12:09:36;4.40;99.90
38568;DHT22;24338;48.280;10.970;2023-02-15T12:12:22;4.40;99.90
38568;DHT22;24338;48.280;10.970;2023-02-15T12:14:52;4.50;99.90
38568;DHT22;24338;48.280;10.970;2023-02-15T12:17:27;4.60;99.90
38568;DHT22;24338;48.280;10.970;2023-02-15T12:20:00;4.70;99.90
38568;DHT22;24338;48.280;10.970;2023-02-15T12:22:31;4.80;99.90
38568;DHT22;24338;48.280;10.970;2023-02-15T12:25:01;5.00;99.90
38568;DHT22;24338;48.280;10.970;2023-02-15T12:27:30;5.10;99.90
38568;DHT22;24338;48.280;10.970;2023-02-15T12:29:59;5.30;99.90
38568;DHT22;24338;48.280;10.970;2023-02-15T12:32:33;5.40;99.90
38568;DHT22;24338;48.280;10.970;2023-02-15T12:35:13;5.60;99.90
38568;DHT22;24338;48.280;10.970;2023-02-15T12:37:55;5.70;99.90
38568;DHT22;24338;48.280;10.970;2023-02-15T12:40:28;5.80;99.90
38568;DHT22;24338;48.280;10.970;2023-02-15T12:42:57;5.90;99.90
38568;DHT22;24338;48.280;10.970;2023-02-15T12:45:29;5.90;99.90
38568;DHT22;24338;48.280;10.970;2023-02-15T12:50:40;6.00;99.90
38568;DHT22;24338;48.280;10.970;2023-02-15T12:53:17;6.00;99.90
38568;DHT22;24338;48.280;10.970;2023-02-15T12:58:26;6.30;99.90
38568;DHT22;24338;48.280;10.970;2023-02-15T13:03:38;6.50;99.90
38568;DHT22;24338;48.280;10.970;2023-02-15T13:06:13;6.50;99.90
38568;DHT22;24338;48.280;10.970;2023-02-15T13:08:47;6.70;99.90
38568;DHT22;24338;48.280;10.970;2023-02-15T13:11:27;6.80;99.90
38568;DHT22;24338;48.280;10.970;2023-02-15T13:14:02;6.80;99.90
38568;DHT22;24338;48.280;10.970;2023-02-15T13:16:35;6.90;99.90
38568;DHT22;24338;48.280;10.970;2023-02-15T13:19:14;7.00;99.90
38568;DHT22;24338;48.280;10.970;2023-02-15T13:21:47;7.10;99.90
38568;DHT22;24338;48.280;10.970;2023-02-15T13:24:17;7.30;99.90
38568;DHT22;24338;48.280;10.970;2023-02-15T13:26:46;7.30;99.90
38568;DHT22;24338;48.280;10.970;2023-02-15T13:29:30;7.40;99.90
38568;DHT22;24338;48.280;10.970;2023-02-15T13:35:01;7.40;99.90
38568;DHT22;24338;48.280;10.970;2023-02-15T13:42:56;7.90;99.90
38568;DHT22;24338;48.280;10.970;2023-02-15T13:45:49;8.00;99.90
38568;DHT22;24338;48.280;10.970;2023-02-15T13:48:46;8.00;99.90
38568;DHT22;24338;48.280;10.970;2023-02-15T13:51:22;8.10;99.90
38568;DHT22;24338;48.280;10.970;2023-02-15T14:08:09;8.10;99.90
38568;DHT22;24338;48.280;10.970;2023-02-15T14:21:19;8.10;99.90
38568;DHT22;24338;48.280;10.970;2023-02-15T14:27:06;8.10;99.90
38568;DHT22;24338;48.280;10.970;2023-02-15T14:29:44;8.20;99.90
38568;DHT22;24338;48.280;10.970;2023-02-15T14:32:18;8.10;99.90
38568;DHT22;24338;48.280;10.970;2023-02-15T14:34:54;8.10;99.90
38568;DHT22;24338;48.280;10.970;2023-02-15T14:40:44;8.10;99.90
38568;DHT22;24338;48.280;10.970;2023-02-15T14:46:21;8.00;99.90
38568;DHT22;24338;48.280;10.970;2023-02-15T14:48:55;8.00;99.90
38568;DHT22;24338;48.280;10.970;2023-02-15T14:51:54;7.80;99.90
38568;DHT22;24338;48.280;10.970;2023-02-15T15:04:41;7.80;99.90
38568;DHT22;24338;48.280;10.970;2023-02-15T15:09:41;7.70;99.90
38568;DHT22;24338;48.280;10.970;2023-02-15T15:14:49;7.60;99.90
38568;DHT22;24338;48.280;10.970;2023-02-15T15:20:05;7.40;99.90
38568;DHT22;24338;48.280;10.970;2023-02-15T15:22:41;7.40;99.90
38568;DHT22;24338;48.280;10.970;2023-02-15T15:27:56;7.30;99.90
38568;DHT22;24338;48.280;10.970;2023-02-15T15:35:59;7.30;99.90
38568;DHT22;24338;48.280;10.970;2023-02-15T15:44:58;7.10;99.90
38568;DHT22;24338;48.280;10.970;2023-02-15T15:50:33;7.00;99.90
38568;DHT22;24338;48.280;10.970;2023-02-15T15:53:02;6.80;99.90
38568;DHT22;24338;48.280;10.970;2023-02-15T15:55:31;6.80;99.90
38568;DHT22;24338;48.280;10.970;2023-02-15T15:58:08;6.70;99.90
38568;DHT22;24338;48.280;10.970;2023-02-15T16:00:42;6.70;99.90
38568;DHT22;24338;48.280;10.970;2023-02-15T16:03:25;6.60;99.90
38568;DHT22;24338;48.280;10.970;2023-02-15T16:05:52;6.50;99.90
38568;DHT22;24338;48.280;10.970;2023-02-15T16:08:36;6.40;99.90
38568;DHT22;24338;48.280;10.970;2023-02-15T16:11:27;6.30;99.90
38568;DHT22;24338;48.280;10.970;2023-02-15T16:13:56;6.10;99.90
38568;DHT22;24338;48.280;10.970;2023-02-15T16:16:25;6.00;99.90
38568;DHT22;24338;48.280;10.970;2023-02-15T16:18:56;5.90;99.90
38568;DHT22;24338;48.280;10.970;2023-02-15T16:21:33;5.80;99.90
38568;DHT22;24338;48.280;10.970;2023-02-15T16:24:21;5.60;99.90
38568;DHT22;24338;48.280;10.970;2023-02-15T16:32:46;5.20;99.90
38568;DHT22;24338;48.280;10.970;2023-02-15T16:35:15;5.20;99.90
38568;DHT22;24338;48.280;10.970;2023-02-15T16:37:43;5.00;99.90
38568;DHT22;24338;48.280;10.970;2023-02-15T16:43:04;4.80;99.90
38568;DHT22;24338;48.280;10.970;2023-02-15T16:45:35;4.60;99.90
38568;DHT22;24338;48.280;10.970;2023-02-15T16:48:12;4.40;99.90
38568;DHT22;24338;48.280;10.970;2023-02-15T16:50:50;4.40;99.90
38568;DHT22;24338;48.280;10.970;2023-02-15T16:53:24;4.20;99.90
38568;DHT22;24338;48.280;10.970;2023-02-15T16:55:54;4.10;99.90
38568;DHT22;24338;48.280;10.970;2023-02-15T16:58:26;4.00;99.90
38568;DHT22;24338;48.280;10.970;2023-02-15T17:00:58;3.90;99.90
38568;DHT22;24338;48.280;10.970;2023-02-15T17:03:27;3.70;99.90
38568;DHT22;24338;48.280;10.970;2023-02-15T17:05:59;3.70;99.90
38568;DHT22;24338;48.280;10.970;2023-02-15T17:13:27;3.30;99.90
38568;DHT22;24338;48.280;10.970;2023-02-15T17:21:09;3.00;99.90
38568;DHT22;24338;48.280;10.970;2023-02-15T17:23:43;2.90;99.90
38568;DHT22;24338;48.280;10.970;2023-02-15T17:26:23;2.80;99.90
38568;DHT22;24338;48.280;10.970;2023-02-15T17:29:14;2.80;99.90
38568;DHT22;24338;48.280;10.970;2023-02-15T17:31:49;2.70;99.90
38568;DHT22;24338;48.280;10.970;2023-02-15T17:34:40;2.60;99.90
38568;DHT22;24338;48.280;10.970;2023-02-15T17:37:23;2.60;99.90
38568;DHT22;24338;48.280;10.970;2023-02-15T17:39:50;2.50;99.90
38568;DHT22;24338;48.280;10.970;2023-02-15T17:42:17;2.50;99.90
38568;DHT22;24338;48.280;10.970;2023-02-15T17:44:44;2.40;99.90
38568;DHT22;24338;48.280;10.970;2023-02-15T17:47:24;2.30;99.90
38568;DHT22;24338;48.280;10.970;2023-02-15T17:49:53;2.20;99.90
38568;DHT22;24338;48.280;10.970;2023-02-15T17:52:20;2.20;99.90
38568;DHT22;24338;48.280;10.970;2023-02-15T17:54:47;2.10;99.90
38568;DHT22;24338;48.280;10.970;2023-02-15T17:57:32;2.10;99.90
38568;DHT22;24338;48.280;10.970;2023-02-15T17:59:59;2.00;99.90
38568;DHT22;24338;48.280;10.970;2023-02-15T18:02:45;1.90;99.90
38568;DHT22;24338;48.280;10.970;2023-02-15T18:05:31;1.90;99.90
38568;DHT22;24338;48.280;10.970;2023-02-15T18:08:18;1.80;99.90
38568;DHT22;24338;48.280;10.970;2023-02-15T18:11:04;1.70;99.90
38568;DHT22;24338;48.280;10.970;2023-02-15T18:13:50;1.70;99.90
38568;DHT22;24338;48.280;10.970;2023-02-15T18:16:22;1.60;99.90
38568;DHT22;24338;48.280;10.970;2023-02-15T18:18:50;1.50;99.90
38568;DHT22;24338;48.280;10.970;2023-02-15T18:21:18;1.50;99.90
38568;DHT22;24338;48.280;10.970;2023-02-15T18:23:45;1.50;99.90
38568;DHT22;24338;48.280;10.970;2023-02-15T18:26:20;1.40;99.90
38568;DHT22;24338;48.280;10.970;2023-02-15T18:28:48;1.40;99.90
38568;DHT22;24338;48.280;10.970;2023-02-15T18:31:16;1.30;99.90
38568;DHT22;24338;48.280;10.970;2023-02-15T18:33:46;1.30;99.90
38568;DHT22;24338;48.280;10.970;2023-02-15T18:36:25;1.20;99.90
38568;DHT22;24338;48.280;10.970;2023-02-15T18:38:57;1.20;99.90
38568;DHT22;24338;48.280;10.970;2023-02-15T18:41:24;1.10;99.90
38568;DHT22;24338;48.280;10.970;2023-02-15T18:43:51;1.10;99.90
38568;DHT22;24338;48.280;10.970;2023-02-15T18:46:19;1.00;99.90
38568;DHT22;24338;48.280;10.970;2023-02-15T18:48:46;1.00;99.90
38568;DHT22;24338;48.280;10.970;2023-02-15T18:51:21;0.90;99.90
38568;DHT22;24338;48.280;10.970;2023-02-15T18:53:52;0.80;99.90
38568;DHT22;24338;48.280;10.970;2023-02-15T18:56:21;0.80;99.90